Accueil
METAR-TAF:

METAR-TAF

Aéroports :

Mount Airy/Surry County Airport

Mount Airy, Caroline du Nord, États-Unis

latitude: 36-27-35N, longitude: 080-33-11W, altitude: 380 m

Observation

Le bulletin a été fait il y a 21 minutes, à 22:55 UTC
Vent 4 kt de nord/nord-ouest
Température 10°C
Humidité 57%
Pression 1023 hPa
Visibilité: 16.1 km
Ciel clair

METAR: KMWK 202255Z AUTO 34004KT 10SM CLR 10/02 A3021 RMK AO2 T01000022

Heure: 18:16 (23:16 UTC)


TAF: absent

Observations et prévisions météorologiques de plus de 4000 aéroports (messages METAR et TAF).

Les stations disponibles sont représentées par des disques jaunes et rouges sur la carte.

Passer la souris dessus pour voir le nom de la station.

Cliquer dessus pour voir les observations et prévisions météorologiques.

Pour changer de carte: cliquez sur les boutons verts avec une croix noire pour zoomer, sur le bouton vert avec un tiret pour effectuer un zoom arrière, ou sur les flèches vertes pour les cartes adjacentes.


METAR-TAF: